YKZ weather

Buttonville Municipal Airport
Toronto, Ontario, Canada

Public forecast

Using degrees Celsius for public forecast. Weather courtesy of forecast.io.

METAR (pilot weather report)

Retrieved 2017/12/11 04:00 UTC (31 minutes ago):

CYKZ 110400Z 36005KT 5SM -SHSN FEW010 BKN035TCU BKN055 M04/M07 A2985 RMK CF1TCU5SC1 VIS NE - SE 12 SLP121

TAF (pilot weather forecast)

Forecast is more than 12 hours old.

Retrieved 2017/12/10 00:39 UTC (1 day ago):

TAF CYKZ 102338Z 1100/1112 24010G20KT P6SM -SN FEW020 BKN080 TEMPO 1100/1102 4SM -SN BKN020 OVC080 FM110200 24010KT 6SM -SN OVC025 TEMPO 1102/1105 1SM -SN VV008 BECMG 1103/1105 34010KT FM110500 34010KT P6SM -SHSN BKN030 FM110700 34008KT P6SM SCT030 BECMG 1110/1112 01008KT RMK NXT FCST BY 110600Z